sensor_id;sensor_type;location;lat;lon;timestamp;pressure;altitude;pressure_sealevel;temperature
76541;BMP280;65385;55.772;37.658;2023-04-24T00:00:03;99782.91;;;11.76
76541;BMP280;65385;55.772;37.658;2023-04-24T00:01:09;99786.56;;;11.75
76541;BMP280;65385;55.772;37.658;2023-04-24T00:02:10;99787.63;;;11.74
76541;BMP280;65385;55.772;37.658;2023-04-24T00:03:11;99789.97;;;11.76
76541;BMP280;65385;55.772;37.658;2023-04-24T00:04:13;99788.69;;;11.73
76541;BMP280;65385;55.772;37.658;2023-04-24T00:05:15;99791.81;;;11.75
76541;BMP280;65385;55.772;37.658;2023-04-24T00:06:16;99795.75;;;11.78
76541;BMP280;65385;55.772;37.658;2023-04-24T00:07:17;99784.50;;;11.77
76541;BMP280;65385;55.772;37.658;2023-04-24T00:08:18;99793.38;;;11.76
76541;BMP280;65385;55.772;37.658;2023-04-24T00:09:19;99785.03;;;11.74
76541;BMP280;65385;55.772;37.658;2023-04-24T00:10:19;99788.16;;;11.76
76541;BMP280;65385;55.772;37.658;2023-04-24T00:11:21;99794.44;;;11.75
76541;BMP280;65385;55.772;37.658;2023-04-24T00:12:21;99788.16;;;11.76
76541;BMP280;65385;55.772;37.658;2023-04-24T00:13:22;99786.56;;;11.75
76541;BMP280;65385;55.772;37.658;2023-04-24T00:14:23;99790.25;;;11.74
76541;BMP280;65385;55.772;37.658;2023-04-24T00:15:23;99783.44;;;11.73
76541;BMP280;65385;55.772;37.658;2023-04-24T00:16:24;99785.56;;;11.71
76541;BMP280;65385;55.772;37.658;2023-04-24T00:17:25;99791.59;;;11.72
76541;BMP280;65385;55.772;37.658;2023-04-24T00:18:25;99784.75;;;11.71
76541;BMP280;65385;55.772;37.658;2023-04-24T00:19:26;99787.38;;;11.71
76541;BMP280;65385;55.772;37.658;2023-04-24T00:20:27;99781.34;;;11.70
76541;BMP280;65385;55.772;37.658;2023-04-24T00:21:33;99785.25;;;11.68
76541;BMP280;65385;55.772;37.658;2023-04-24T00:22:33;99783.72;;;11.67
76541;BMP280;65385;55.772;37.658;2023-04-24T00:23:34;99784.75;;;11.66
76541;BMP280;65385;55.772;37.658;2023-04-24T00:24:35;99786.34;;;11.67
76541;BMP280;65385;55.772;37.658;2023-04-24T00:25:36;99791.56;;;11.67
76541;BMP280;65385;55.772;37.658;2023-04-24T00:26:36;99785.81;;;11.65
76541;BMP280;65385;55.772;37.658;2023-04-24T00:27:37;99792.09;;;11.64
76541;BMP280;65385;55.772;37.658;2023-04-24T00:28:39;99787.66;;;11.64
76541;BMP280;65385;55.772;37.658;2023-04-24T00:29:39;99783.44;;;11.63
76541;BMP280;65385;55.772;37.658;2023-04-24T00:30:40;99784.50;;;11.62
76541;BMP280;65385;55.772;37.658;2023-04-24T00:31:41;99788.94;;;11.62
76541;BMP280;65385;55.772;37.658;2023-04-24T00:32:41;99786.06;;;11.58
76541;BMP280;65385;55.772;37.658;2023-04-24T00:33:42;99785.53;;;11.61
76541;BMP280;65385;55.772;37.658;2023-04-24T00:34:43;99782.13;;;11.61
76541;BMP280;65385;55.772;37.658;2023-04-24T00:35:43;99782.91;;;11.61
76541;BMP280;65385;55.772;37.658;2023-04-24T00:36:45;99783.19;;;11.60
76541;BMP280;65385;55.772;37.658;2023-04-24T00:37:46;99787.66;;;11.59
76541;BMP280;65385;55.772;37.658;2023-04-24T00:38:47;99791.31;;;11.58
76541;BMP280;65385;55.772;37.658;2023-04-24T00:39:48;99779.53;;;11.56
76541;BMP280;65385;55.772;37.658;2023-04-24T00:40:48;99793.41;;;11.56
76541;BMP280;65385;55.772;37.658;2023-04-24T00:41:50;99791.03;;;11.55
76541;BMP280;65385;55.772;37.658;2023-04-24T00:42:51;99785.81;;;11.55
76541;BMP280;65385;55.772;37.658;2023-04-24T00:43:52;99794.44;;;11.55
76541;BMP280;65385;55.772;37.658;2023-04-24T00:44:53;99792.88;;;11.54
76541;BMP280;65385;55.772;37.658;2023-04-24T00:45:54;99792.09;;;11.54
76541;BMP280;65385;55.772;37.658;2023-04-24T00:46:55;99787.88;;;11.53
76541;BMP280;65385;55.772;37.658;2023-04-24T00:47:57;99790.50;;;11.53
76541;BMP280;65385;55.772;37.658;2023-04-24T00:48:58;99792.38;;;11.52
76541;BMP280;65385;55.772;37.658;2023-04-24T00:50:03;99789.19;;;11.50
76541;BMP280;65385;55.772;37.658;2023-04-24T00:51:04;99792.09;;;11.49
76541;BMP280;65385;55.772;37.658;2023-04-24T00:52:05;99789.72;;;11.47
76541;BMP280;65385;55.772;37.658;2023-04-24T00:53:09;99788.16;;;11.46
76541;BMP280;65385;55.772;37.658;2023-04-24T00:54:09;99785.81;;;11.45
76541;BMP280;65385;55.772;37.658;2023-04-24T00:55:10;99786.59;;;11.45
76541;BMP280;65385;55.772;37.658;2023-04-24T00:56:11;99787.91;;;11.43
76541;BMP280;65385;55.772;37.658;2023-04-24T00:57:13;99791.06;;;11.45
76541;BMP280;65385;55.772;37.658;2023-04-24T00:58:15;99789.47;;;11.44
76541;BMP280;65385;55.772;37.658;2023-04-24T00:59:16;99794.72;;;11.44
76541;BMP280;65385;55.772;37.658;2023-04-24T01:00:18;99789.22;;;11.40
76541;BMP280;65385;55.772;37.658;2023-04-24T01:01:20;99786.34;;;11.42
76541;BMP280;65385;55.772;37.658;2023-04-24T01:02:22;99795.78;;;11.43
76541;BMP280;65385;55.772;37.658;2023-04-24T01:03:25;99788.97;;;11.42
76541;BMP280;65385;55.772;37.658;2023-04-24T01:04:26;99792.38;;;11.42
76541;BMP280;65385;55.772;37.658;2023-04-24T01:05:27;99780.31;;;11.41
76541;BMP280;65385;55.772;37.658;2023-04-24T01:06:29;99791.81;;;11.40
76541;BMP280;65385;55.772;37.658;2023-04-24T01:07:31;99792.88;;;11.39
76541;BMP280;65385;55.772;37.658;2023-04-24T01:08:32;99783.69;;;11.37
76541;BMP280;65385;55.772;37.658;2023-04-24T01:09:34;99787.38;;;11.36
76541;BMP280;65385;55.772;37.658;2023-04-24T01:10:36;99786.56;;;11.35
76541;BMP280;65385;55.772;37.658;2023-04-24T01:11:37;99791.81;;;11.35
76541;BMP280;65385;55.772;37.658;2023-04-24T01:12:39;99786.31;;;11.31
76541;BMP280;65385;55.772;37.658;2023-04-24T01:13:40;99783.19;;;11.29
76541;BMP280;65385;55.772;37.658;2023-04-24T01:14:42;99785.00;;;11.29
76541;BMP280;65385;55.772;37.658;2023-04-24T01:15:42;99790.25;;;11.29
76541;BMP280;65385;55.772;37.658;2023-04-24T01:16:43;99786.03;;;11.28
76541;BMP280;65385;55.772;37.658;2023-04-24T01:17:44;99795.22;;;11.25
76541;BMP280;65385;55.772;37.658;2023-04-24T01:18:45;99785.78;;;11.24
76541;BMP280;65385;55.772;37.658;2023-04-24T01:19:46;99788.41;;;11.24
76541;BMP280;65385;55.772;37.658;2023-04-24T01:20:48;99783.69;;;11.21
76541;BMP280;65385;55.772;37.658;2023-04-24T01:21:51;99788.69;;;11.23
76541;BMP280;65385;55.772;37.658;2023-04-24T01:22:54;99782.91;;;11.21
76541;BMP280;65385;55.772;37.658;2023-04-24T01:23:57;99782.91;;;11.21
76541;BMP280;65385;55.772;37.658;2023-04-24T01:24:58;99791.28;;;11.18
76541;BMP280;65385;55.772;37.658;2023-04-24T01:25:58;99794.13;;;11.16
76541;BMP280;65385;55.772;37.658;2023-04-24T01:27:00;99786.03;;;11.13
76541;BMP280;65385;55.772;37.658;2023-04-24T01:28:01;99783.69;;;11.11
76541;BMP280;65385;55.772;37.658;2023-04-24T01:29:02;99787.63;;;11.09
76541;BMP280;65385;55.772;37.658;2023-04-24T01:30:03;99781.59;;;11.08
76541;BMP280;65385;55.772;37.658;2023-04-24T01:31:07;99780.78;;;11.08
76541;BMP280;65385;55.772;37.658;2023-04-24T01:32:07;99778.69;;;11.05
76541;BMP280;65385;55.772;37.658;2023-04-24T01:33:08;99782.88;;;11.06
76541;BMP280;65385;55.772;37.658;2023-04-24T01:34:09;99779.75;;;11.04
76541;BMP280;65385;55.772;37.658;2023-04-24T01:35:10;99782.59;;;11.02
76541;BMP280;65385;55.772;37.658;2023-04-24T01:36:11;99785.22;;;11.02
76541;BMP280;65385;55.772;37.658;2023-04-24T01:37:12;99781.31;;;11.00
76541;BMP280;65385;55.772;37.658;2023-04-24T01:38:13;99777.88;;;10.99
76541;BMP280;65385;55.772;37.658;2023-04-24T01:39:13;99777.63;;;10.96
76541;BMP280;65385;55.772;37.658;2023-04-24T01:40:15;99783.66;;;10.96
76541;BMP280;65385;55.772;37.658;2023-04-24T01:41:16;99778.16;;;10.93
76541;BMP280;65385;55.772;37.658;2023-04-24T01:42:19;99782.59;;;10.92
76541;BMP280;65385;55.772;37.658;2023-04-24T01:43:21;99779.19;;;10.92
76541;BMP280;65385;55.772;37.658;2023-04-24T01:44:22;99774.72;;;10.87
76541;BMP280;65385;55.772;37.658;2023-04-24T01:45:23;99775.50;;;10.88
76541;BMP280;65385;55.772;37.658;2023-04-24T01:46:24;99777.59;;;10.86
76541;BMP280;65385;55.772;37.658;2023-04-24T01:47:25;99775.47;;;10.82
76541;BMP280;65385;55.772;37.658;2023-04-24T01:48:26;99772.88;;;10.82
76541;BMP280;65385;55.772;37.658;2023-04-24T01:49:27;99776.78;;;10.80
76541;BMP280;65385;55.772;37.658;2023-04-24T01:50:27;99777.06;;;10.78
76541;BMP280;65385;55.772;37.658;2023-04-24T01:51:28;99777.06;;;10.78
76541;BMP280;65385;55.772;37.658;2023-04-24T01:52:31;99772.31;;;10.75
76541;BMP280;65385;55.772;37.658;2023-04-24T01:53:34;99775.97;;;10.74
76541;BMP280;65385;55.772;37.658;2023-04-24T01:54:34;99771.28;;;10.71
76541;BMP280;65385;55.772;37.658;2023-04-24T01:55:36;99775.75;;;10.71
76541;BMP280;65385;55.772;37.658;2023-04-24T01:56:41;99770.19;;;10.67
76541;BMP280;65385;55.772;37.658;2023-04-24T01:57:43;99780.66;;;10.67
76541;BMP280;65385;55.772;37.658;2023-04-24T01:58:43;99774.41;;;10.68
76541;BMP280;65385;55.772;37.658;2023-04-24T01:59:44;99771.25;;;10.66
76541;BMP280;65385;55.772;37.658;2023-04-24T02:00:45;99775.44;;;10.67
76541;BMP280;65385;55.772;37.658;2023-04-24T02:01:46;99773.06;;;10.66
76541;BMP280;65385;55.772;37.658;2023-04-24T02:02:46;99771.78;;;10.63
76541;BMP280;65385;55.772;37.658;2023-04-24T02:03:47;99772.81;;;10.62
76541;BMP280;65385;55.772;37.658;2023-04-24T02:04:47;99771.78;;;10.63
76541;BMP280;65385;55.772;37.658;2023-04-24T02:05:48;99774.41;;;10.63
76541;BMP280;65385;55.772;37.658;2023-04-24T02:06:49;99775.97;;;10.64
76541;BMP280;65385;55.772;37.658;2023-04-24T02:07:49;99773.84;;;10.66
76541;BMP280;65385;55.772;37.658;2023-04-24T02:08:50;99772.03;;;10.67
76541;BMP280;65385;55.772;37.658;2023-04-24T02:09:50;99774.16;;;10.70
76541;BMP280;65385;55.772;37.658;2023-04-24T02:10:51;99779.63;;;10.68
76541;BMP280;65385;55.772;37.658;2023-04-24T02:11:52;99769.72;;;10.70
76541;BMP280;65385;55.772;37.658;2023-04-24T02:12:52;99775.75;;;10.71
76541;BMP280;65385;55.772;37.658;2023-04-24T02:13:53;99779.63;;;10.73
76541;BMP280;65385;55.772;37.658;2023-04-24T02:14:54;99774.16;;;10.75
76541;BMP280;65385;55.772;37.658;2023-04-24T02:15:54;99772.09;;;10.77
76541;BMP280;65385;55.772;37.658;2023-04-24T02:16:57;99767.41;;;10.79
76541;BMP280;65385;55.772;37.658;2023-04-24T02:17:58;99770.53;;;10.81
76541;BMP280;65385;55.772;37.658;2023-04-24T02:18:58;99769.47;;;10.87
76541;BMP280;65385;55.772;37.658;2023-04-24T02:19:59;99771.59;;;10.95
76541;BMP280;65385;55.772;37.658;2023-04-24T02:21:00;99774.50;;;11.04
76541;BMP280;65385;55.772;37.658;2023-04-24T02:22:00;99771.91;;;11.14
76541;BMP280;65385;55.772;37.658;2023-04-24T02:23:01;99778.22;;;11.23
76541;BMP280;65385;55.772;37.658;2023-04-24T02:24:02;99781.34;;;11.35
76541;BMP280;65385;55.772;37.658;2023-04-24T02:25:02;99773.50;;;11.45
76541;BMP280;65385;55.772;37.658;2023-04-24T02:26:08;99773.47;;;11.60
76541;BMP280;65385;55.772;37.658;2023-04-24T02:27:09;99775.56;;;11.73
76541;BMP280;65385;55.772;37.658;2023-04-24T02:28:10;99776.06;;;11.91
76541;BMP280;65385;55.772;37.658;2023-04-24T02:29:10;99785.50;;;12.07
76541;BMP280;65385;55.772;37.658;2023-04-24T02:30:11;99771.81;;;12.20
76541;BMP280;65385;55.772;37.658;2023-04-24T02:31:12;99783.28;;;12.39
76541;BMP280;65385;55.772;37.658;2023-04-24T02:32:13;99779.28;;;12.57
76541;BMP280;65385;55.772;37.658;2023-04-24T02:33:17;99775.25;;;12.74
76541;BMP280;65385;55.772;37.658;2023-04-24T02:34:18;99781.16;;;12.95
76541;BMP280;65385;55.772;37.658;2023-04-24T02:35:18;99783.13;;;13.13
76541;BMP280;65385;55.772;37.658;2023-04-24T02:36:19;99777.44;;;13.35
76541;BMP280;65385;55.772;37.658;2023-04-24T02:37:20;99776.50;;;13.55
76541;BMP280;65385;55.772;37.658;2023-04-24T02:38:20;99779.69;;;13.75
76541;BMP280;65385;55.772;37.658;2023-04-24T02:39:21;99781.59;;;13.94
76541;BMP280;65385;55.772;37.658;2023-04-24T02:40:21;99777.69;;;14.15
76541;BMP280;65385;55.772;37.658;2023-04-24T02:41:22;99780.63;;;14.32
76541;BMP280;65385;55.772;37.658;2023-04-24T02:42:23;99784.09;;;14.51
76541;BMP280;65385;55.772;37.658;2023-04-24T02:43:23;99780.38;;;14.71
76541;BMP280;65385;55.772;37.658;2023-04-24T02:44:24;99778.78;;;14.88
76541;BMP280;65385;55.772;37.658;2023-04-24T02:45:25;99778.28;;;15.05
76541;BMP280;65385;55.772;37.658;2023-04-24T02:46:25;99778.25;;;15.24
76541;BMP280;65385;55.772;37.658;2023-04-24T02:47:26;99785.88;;;15.39
76541;BMP280;65385;55.772;37.658;2023-04-24T02:48:27;99780.94;;;15.51
76541;BMP280;65385;55.772;37.658;2023-04-24T02:49:28;99781.25;;;15.63
76541;BMP280;65385;55.772;37.658;2023-04-24T02:50:29;99786.34;;;15.73
76541;BMP280;65385;55.772;37.658;2023-04-24T02:51:29;99781.38;;;15.85
76541;BMP280;65385;55.772;37.658;2023-04-24T02:52:31;99787.41;;;15.99
76541;BMP280;65385;55.772;37.658;2023-04-24T02:53:32;99789.00;;;16.14
76541;BMP280;65385;55.772;37.658;2023-04-24T02:54:33;99782.31;;;16.30
76541;BMP280;65385;55.772;37.658;2023-04-24T02:55:33;99784.63;;;16.45
76541;BMP280;65385;55.772;37.658;2023-04-24T02:56:34;99789.28;;;16.62
76541;BMP280;65385;55.772;37.658;2023-04-24T02:57:36;99786.59;;;16.76
76541;BMP280;65385;55.772;37.658;2023-04-24T02:58:36;99786.09;;;16.96
76541;BMP280;65385;55.772;37.658;2023-04-24T02:59:37;99790.41;;;17.14
76541;BMP280;65385;55.772;37.658;2023-04-24T03:00:38;99780.72;;;17.32
76541;BMP280;65385;55.772;37.658;2023-04-24T03:01:39;99785.31;;;17.48
76541;BMP280;65385;55.772;37.658;2023-04-24T03:02:40;99790.19;;;17.63
76541;BMP280;65385;55.772;37.658;2023-04-24T03:03:41;99793.06;;;17.84
76541;BMP280;65385;55.772;37.658;2023-04-24T03:04:41;99787.78;;;18.01
76541;BMP280;65385;55.772;37.658;2023-04-24T03:05:43;99789.22;;;18.16
76541;BMP280;65385;55.772;37.658;2023-04-24T03:06:43;99791.88;;;18.24
76541;BMP280;65385;55.772;37.658;2023-04-24T03:07:44;99787.19;;;18.39
76541;BMP280;65385;55.772;37.658;2023-04-24T03:08:46;99790.47;;;18.53
76541;BMP280;65385;55.772;37.658;2023-04-24T03:09:46;99782.53;;;18.70
76541;BMP280;65385;55.772;37.658;2023-04-24T03:10:49;99789.38;;;18.88
76541;BMP280;65385;55.772;37.658;2023-04-24T03:11:50;99789.03;;;18.98
76541;BMP280;65385;55.772;37.658;2023-04-24T03:12:51;99788.81;;;19.12
76541;BMP280;65385;55.772;37.658;2023-04-24T03:13:52;99783.47;;;19.29
76541;BMP280;65385;55.772;37.658;2023-04-24T03:14:54;99786.53;;;19.39
76541;BMP280;65385;55.772;37.658;2023-04-24T03:15:55;99788.06;;;19.49
76541;BMP280;65385;55.772;37.658;2023-04-24T03:16:56;99784.13;;;19.64
76541;BMP280;65385;55.772;37.658;2023-04-24T03:17:56;99783.41;;;19.75
76541;BMP280;65385;55.772;37.658;2023-04-24T03:18:57;99788.31;;;19.94
76541;BMP280;65385;55.772;37.658;2023-04-24T03:20:01;99791.94;;;20.10
76541;BMP280;65385;55.772;37.658;2023-04-24T03:21:04;99790.44;;;20.21
76541;BMP280;65385;55.772;37.658;2023-04-24T03:22:05;99793.63;;;20.35
76541;BMP280;65385;55.772;37.658;2023-04-24T03:23:08;99796.09;;;20.40
76541;BMP280;65385;55.772;37.658;2023-04-24T03:24:09;99795.81;;;20.54
76541;BMP280;65385;55.772;37.658;2023-04-24T03:25:11;99797.09;;;20.69
76541;BMP280;65385;55.772;37.658;2023-04-24T03:26:12;99788.34;;;20.80
76541;BMP280;65385;55.772;37.658;2023-04-24T03:27:23;99787.47;;;20.88
76541;BMP280;65385;55.772;37.658;2023-04-24T03:28:44;99796.47;;;20.96
76541;BMP280;65385;55.772;37.658;2023-04-24T03:29:45;99796.38;;;21.04
76541;BMP280;65385;55.772;37.658;2023-04-24T03:30:46;99791.19;;;21.20
76541;BMP280;65385;55.772;37.658;2023-04-24T03:31:48;99787.75;;;21.32
76541;BMP280;65385;55.772;37.658;2023-04-24T03:32:48;99792.06;;;21.48
76541;BMP280;65385;55.772;37.658;2023-04-24T03:33:54;99790.75;;;21.54
76541;BMP280;65385;55.772;37.658;2023-04-24T03:34:55;99795.94;;;21.63
76541;BMP280;65385;55.772;37.658;2023-04-24T03:35:56;99785.28;;;21.63
76541;BMP280;65385;55.772;37.658;2023-04-24T03:36:57;99792.84;;;21.61
76541;BMP280;65385;55.772;37.658;2023-04-24T03:37:58;99797.63;;;21.55
76541;BMP280;65385;55.772;37.658;2023-04-24T03:39:19;99792.28;;;21.55
76541;BMP280;65385;55.772;37.658;2023-04-24T03:40:26;99795.13;;;21.74
76541;BMP280;65385;55.772;37.658;2023-04-24T03:41:26;99793.59;;;21.85
76541;BMP280;65385;55.772;37.658;2023-04-24T03:42:30;99793.22;;;21.99
76541;BMP280;65385;55.772;37.658;2023-04-24T03:43:31;99799.97;;;22.09
76541;BMP280;65385;55.772;37.658;2023-04-24T03:44:35;99805.28;;;22.09
76541;BMP280;65385;55.772;37.658;2023-04-24T03:45:36;99795.72;;;22.20
76541;BMP280;65385;55.772;37.658;2023-04-24T03:46:37;99809.78;;;22.32
76541;BMP280;65385;55.772;37.658;2023-04-24T03:47:38;99803.91;;;22.27
76541;BMP280;65385;55.772;37.658;2023-04-24T03:48:40;99806.75;;;22.34
76541;BMP280;65385;55.772;37.658;2023-04-24T03:49:42;99806.66;;;22.58
76541;BMP280;65385;55.772;37.658;2023-04-24T03:50:44;99805.19;;;22.76
76541;BMP280;65385;55.772;37.658;2023-04-24T03:51:46;99805.13;;;22.88
76541;BMP280;65385;55.772;37.658;2023-04-24T03:52:59;99797.28;;;23.11
76541;BMP280;65385;55.772;37.658;2023-04-24T03:54:09;99807.91;;;23.07
76541;BMP280;65385;55.772;37.658;2023-04-24T03:55:13;99805.63;;;23.25
76541;BMP280;65385;55.772;37.658;2023-04-24T03:56:18;99804.78;;;23.21
76541;BMP280;65385;55.772;37.658;2023-04-24T03:57:20;99806.94;;;23.31
76541;BMP280;65385;55.772;37.658;2023-04-24T03:58:34;99807.44;;;23.37
76541;BMP280;65385;55.772;37.658;2023-04-24T03:59:35;99809.66;;;23.35
76541;BMP280;65385;55.772;37.658;2023-04-24T04:00:44;99803.25;;;23.55
76541;BMP280;65385;55.772;37.658;2023-04-24T04:02:11;99804.69;;;23.68
76541;BMP280;65385;55.772;37.658;2023-04-24T04:03:11;99810.81;;;23.68
76541;BMP280;65385;55.772;37.658;2023-04-24T04:04:14;99807.94;;;23.77
76541;BMP280;65385;55.772;37.658;2023-04-24T04:05:15;99805.00;;;24.01
76541;BMP280;65385;55.772;37.658;2023-04-24T04:06:15;99810.03;;;24.06
76541;BMP280;65385;55.772;37.658;2023-04-24T04:07:16;99807.47;;;24.10
76541;BMP280;65385;55.772;37.658;2023-04-24T04:08:17;99810.31;;;24.20
76541;BMP280;65385;55.772;37.658;2023-04-24T04:09:18;99812.72;;;24.06
76541;BMP280;65385;55.772;37.658;2023-04-24T04:10:20;99807.31;;;24.22
76541;BMP280;65385;55.772;37.658;2023-04-24T04:11:20;99808.66;;;24.12
76541;BMP280;65385;55.772;37.658;2023-04-24T04:12:21;99811.19;;;24.24
76541;BMP280;65385;55.772;37.658;2023-04-24T04:13:22;99811.44;;;24.38
76541;BMP280;65385;55.772;37.658;2023-04-24T04:14:23;99810.13;;;24.51
76541;BMP280;65385;55.772;37.658;2023-04-24T04:15:24;99811.59;;;24.68
76541;BMP280;65385;55.772;37.658;2023-04-24T04:16:25;99812.97;;;24.81
76541;BMP280;65385;55.772;37.658;2023-04-24T04:17:30;99810.38;;;24.66
76541;BMP280;65385;55.772;37.658;2023-04-24T04:18:34;99804.19;;;24.84
76541;BMP280;65385;55.772;37.658;2023-04-24T04:19:35;99798.59;;;24.70
76541;BMP280;65385;55.772;37.658;2023-04-24T04:20:36;99807.28;;;24.64
76541;BMP280;65385;55.772;37.658;2023-04-24T04:21:37;99812.25;;;24.62
76541;BMP280;65385;55.772;37.658;2023-04-24T04:22:57;99809.69;;;24.69
76541;BMP280;65385;55.772;37.658;2023-04-24T04:24:08;99809.09;;;24.79
76541;BMP280;65385;55.772;37.658;2023-04-24T04:25:13;99806.50;;;24.82
76541;BMP280;65385;55.772;37.658;2023-04-24T04:26:14;99820.09;;;24.74
76541;BMP280;65385;55.772;37.658;2023-04-24T04:27:31;99809.22;;;24.86
76541;BMP280;65385;55.772;37.658;2023-04-24T04:28:39;99810.75;;;24.87
76541;BMP280;65385;55.772;37.658;2023-04-24T04:29:41;99813.75;;;24.82
76541;BMP280;65385;55.772;37.658;2023-04-24T04:30:44;99814.28;;;24.91
76541;BMP280;65385;55.772;37.658;2023-04-24T04:31:45;99817.44;;;25.00
76541;BMP280;65385;55.772;37.658;2023-04-24T04:32:47;99809.13;;;25.05
76541;BMP280;65385;55.772;37.658;2023-04-24T04:33:48;99821.38;;;25.06
76541;BMP280;65385;55.772;37.658;2023-04-24T04:34:49;99819.44;;;25.06
76541;BMP280;65385;55.772;37.658;2023-04-24T04:35:51;99816.03;;;25.06
76541;BMP280;65385;55.772;37.658;2023-04-24T04:36:52;99813.66;;;25.01
76541;BMP280;65385;55.772;37.658;2023-04-24T04:38:11;99812.41;;;25.21
76541;BMP280;65385;55.772;37.658;2023-04-24T04:39:22;99814.31;;;25.20
76541;BMP280;65385;55.772;37.658;2023-04-24T04:40:46;99816.91;;;25.40
76541;BMP280;65385;55.772;37.658;2023-04-24T04:41:47;99811.47;;;25.62
76541;BMP280;65385;55.772;37.658;2023-04-24T04:42:50;99821.16;;;25.70
76541;BMP280;65385;55.772;37.658;2023-04-24T04:43:54;99819.38;;;25.81
76541;BMP280;65385;55.772;37.658;2023-04-24T04:44:55;99811.97;;;26.05
76541;BMP280;65385;55.772;37.658;2023-04-24T04:46:04;99817.28;;;26.01
76541;BMP280;65385;55.772;37.658;2023-04-24T04:47:28;99815.47;;;26.09
76541;BMP280;65385;55.772;37.658;2023-04-24T04:48:31;99816.31;;;26.16
76541;BMP280;65385;55.772;37.658;2023-04-24T04:49:34;99815.38;;;26.35
76541;BMP280;65385;55.772;37.658;2023-04-24T04:50:35;99818.06;;;26.35
76541;BMP280;65385;55.772;37.658;2023-04-24T04:51:40;99814.22;;;26.39
76541;BMP280;65385;55.772;37.658;2023-04-24T04:52:41;99811.19;;;26.41
76541;BMP280;65385;55.772;37.658;2023-04-24T04:53:53;99818.16;;;26.49
76541;BMP280;65385;55.772;37.658;2023-04-24T04:54:53;99817.41;;;26.48
76541;BMP280;65385;55.772;37.658;2023-04-24T04:55:56;99819.78;;;26.57
76541;BMP280;65385;55.772;37.658;2023-04-24T04:57:01;99816.00;;;26.65
76541;BMP280;65385;55.772;37.658;2023-04-24T04:58:02;99824.56;;;26.81
76541;BMP280;65385;55.772;37.658;2023-04-24T04:59:03;99824.91;;;26.73
76541;BMP280;65385;55.772;37.658;2023-04-24T05:00:05;99816.16;;;26.83
76541;BMP280;65385;55.772;37.658;2023-04-24T05:01:15;99817.09;;;27.08
76541;BMP280;65385;55.772;37.658;2023-04-24T05:02:19;99827.19;;;27.21
76541;BMP280;65385;55.772;37.658;2023-04-24T05:03:20;99820.94;;;27.10
76541;BMP280;65385;55.772;37.658;2023-04-24T05:04:23;99823.69;;;27.17
76541;BMP280;65385;55.772;37.658;2023-04-24T05:05:24;99820.16;;;27.10
76541;BMP280;65385;55.772;37.658;2023-04-24T05:06:25;99819.84;;;27.15
76541;BMP280;65385;55.772;37.658;2023-04-24T05:07:28;99824.81;;;27.16
76541;BMP280;65385;55.772;37.658;2023-04-24T05:08:30;99818.63;;;27.05
76541;BMP280;65385;55.772;37.658;2023-04-24T05:09:30;99820.56;;;27.08
76541;BMP280;65385;55.772;37.658;2023-04-24T05:10:36;99819.41;;;27.06
76541;BMP280;65385;55.772;37.658;2023-04-24T05:11:37;99818.63;;;27.05
76541;BMP280;65385;55.772;37.658;2023-04-24T05:12:38;99815.56;;;27.10
76541;BMP280;65385;55.772;37.658;2023-04-24T05:13:38;99823.31;;;27.15
76541;BMP280;65385;55.772;37.658;2023-04-24T05:14:42;99826.84;;;27.33
76541;BMP280;65385;55.772;37.658;2023-04-24T05:15:46;99820.31;;;27.31
76541;BMP280;65385;55.772;37.658;2023-04-24T05:16:48;99832.63;;;27.35
76541;BMP280;65385;55.772;37.658;2023-04-24T05:17:50;99823.00;;;27.27
76541;BMP280;65385;55.772;37.658;2023-04-24T05:18:51;99829.16;;;27.35
76541;BMP280;65385;55.772;37.658;2023-04-24T05:19:56;99828.06;;;27.50
76541;BMP280;65385;55.772;37.658;2023-04-24T05:20:56;99824.31;;;27.62
76541;BMP280;65385;55.772;37.658;2023-04-24T05:21:58;99821.25;;;27.70
76541;BMP280;65385;55.772;37.658;2023-04-24T05:22:59;99831.66;;;27.82
76541;BMP280;65385;55.772;37.658;2023-04-24T05:24:01;99825.19;;;27.94
76541;BMP280;65385;55.772;37.658;2023-04-24T05:25:20;99825.19;;;27.97
76541;BMP280;65385;55.772;37.658;2023-04-24T05:26:29;99820.97;;;27.93
76541;BMP280;65385;55.772;37.658;2023-04-24T05:27:32;99831.75;;;28.21
76541;BMP280;65385;55.772;37.658;2023-04-24T05:28:33;99827.53;;;28.27
76541;BMP280;65385;55.772;37.658;2023-04-24T05:29:40;99817.59;;;28.38
76541;BMP280;65385;55.772;37.658;2023-04-24T05:30:42;99824.09;;;28.23
76541;BMP280;65385;55.772;37.658;2023-04-24T05:31:43;99827.56;;;28.16
76541;BMP280;65385;55.772;37.658;2023-04-24T05:32:43;99831.38;;;28.19
76541;BMP280;65385;55.772;37.658;2023-04-24T05:33:44;99828.31;;;28.13
76541;BMP280;65385;55.772;37.658;2023-04-24T05:34:44;99825.97;;;28.05
76541;BMP280;65385;55.772;37.658;2023-04-24T05:35:45;99830.97;;;27.96
76541;BMP280;65385;55.772;37.658;2023-04-24T05:36:46;99825.94;;;27.98
76541;BMP280;65385;55.772;37.658;2023-04-24T05:37:48;99834.03;;;28.12
76541;BMP280;65385;55.772;37.658;2023-04-24T05:38:49;99825.63;;;28.24
76541;BMP280;65385;55.772;37.658;2023-04-24T05:39:50;99824.09;;;28.23
76541;BMP280;65385;55.772;37.658;2023-04-24T05:40:51;99834.47;;;28.21
76541;BMP280;65385;55.772;37.658;2023-04-24T05:41:51;99826.75;;;28.09
76541;BMP280;65385;55.772;37.658;2023-04-24T05:42:52;99828.31;;;28.10
76541;BMP280;65385;55.772;37.658;2023-04-24T05:43:53;99820.63;;;28.37
76541;BMP280;65385;55.772;37.658;2023-04-24T05:44:55;99823.72;;;28.49
76541;BMP280;65385;55.772;37.658;2023-04-24T05:45:55;99814.50;;;28.61
76541;BMP280;65385;55.772;37.658;2023-04-24T05:46:56;99817.56;;;28.52
76541;BMP280;65385;55.772;37.658;2023-04-24T05:47:57;99818.34;;;28.67
76541;BMP280;65385;55.772;37.658;2023-04-24T05:48:58;99817.94;;;28.68
76541;BMP280;65385;55.772;37.658;2023-04-24T05:49:59;99816.78;;;28.73
76541;BMP280;65385;55.772;37.658;2023-04-24T05:50:59;99809.84;;;28.75
76541;BMP280;65385;55.772;37.658;2023-04-24T05:52:00;99821.00;;;28.84
76541;BMP280;65385;55.772;37.658;2023-04-24T05:53:00;99812.13;;;28.94